createdAt,value
2019-01-24T00:00:34.284Z,6.07
2019-01-24T00:03:03.097Z,6.63
2019-01-24T00:05:31.926Z,8.83
2019-01-24T00:08:00.883Z,4.80
2019-01-24T00:10:29.758Z,7.53
2019-01-24T00:12:58.817Z,7.57
2019-01-24T00:15:27.730Z,6.20
2019-01-24T00:17:56.560Z,4.37
2019-01-24T00:20:25.518Z,5.50
2019-01-24T00:22:54.445Z,4.80
2019-01-24T00:25:23.483Z,6.33
2019-01-24T00:27:52.308Z,5.43
2019-01-24T00:30:21.316Z,5.00
2019-01-24T00:32:50.489Z,8.07
2019-01-24T00:35:19.531Z,6.63
2019-01-24T00:37:49.708Z,4.90
2019-01-24T00:40:20.496Z,6.13
2019-01-24T00:42:49.574Z,4.50
2019-01-24T00:45:22.191Z,5.03
2019-01-24T00:47:51.273Z,5.53
2019-01-24T00:50:20.100Z,3.93
2019-01-24T00:52:49.533Z,7.13
2019-01-24T00:55:18.366Z,5.80
2019-01-24T00:57:48.979Z,6.00
2019-01-24T01:00:25.866Z,8.30
2019-01-24T01:02:54.871Z,5.07
2019-01-24T01:05:23.769Z,6.00
2019-01-24T01:07:52.564Z,7.83
2019-01-24T01:10:21.513Z,5.73
2019-01-24T01:12:51.745Z,5.77
2019-01-24T01:15:22.296Z,6.77
2019-01-24T01:17:51.718Z,6.97
2019-01-24T01:20:21.967Z,4.67
2019-01-24T01:22:53.793Z,4.93
2019-01-24T01:25:22.559Z,5.73
2019-01-24T01:27:51.670Z,7.67
2019-01-24T01:30:24.795Z,4.10
2019-01-24T01:32:53.560Z,6.17
2019-01-24T01:35:22.609Z,9.63
2019-01-24T01:37:51.756Z,6.03
2019-01-24T01:40:20.916Z,6.53
2019-01-24T01:42:50.271Z,6.70
2019-01-24T01:45:20.561Z,5.13
2019-01-24T01:47:50.266Z,4.93
2019-01-24T01:50:23.794Z,9.43
2019-01-24T01:52:52.894Z,5.67
2019-01-24T01:55:23.128Z,9.00
2019-01-24T01:57:52.167Z,9.53
2019-01-24T02:00:23.682Z,5.33
2019-01-24T02:02:52.605Z,5.87
2019-01-24T02:05:22.967Z,10.47
2019-01-24T02:07:51.949Z,6.73
2019-01-24T02:10:23.146Z,4.57
2019-01-24T02:12:52.266Z,8.13
2019-01-24T02:15:22.649Z,7.90
2019-01-24T02:17:51.631Z,7.20
2019-01-24T02:20:24.336Z,10.40
2019-01-24T02:22:53.530Z,4.53
2019-01-24T02:25:22.665Z,7.57
2019-01-24T02:27:51.923Z,7.10
2019-01-24T02:30:23.510Z,6.33
2019-01-24T02:32:52.396Z,8.67
2019-01-24T02:35:21.611Z,8.13
2019-01-24T02:37:50.565Z,6.80
2019-01-24T02:40:21.629Z,5.47
2019-01-24T02:42:50.654Z,8.30
2019-01-24T02:45:22.308Z,6.03
2019-01-24T02:47:51.784Z,7.30
2019-01-24T02:50:22.100Z,5.03
2019-01-24T02:52:52.401Z,5.77
2019-01-24T02:55:21.929Z,5.67
2019-01-24T02:57:50.997Z,7.00
2019-01-24T03:00:22.146Z,6.27
2019-01-24T03:02:52.376Z,4.93
2019-01-24T03:05:23.545Z,5.37
2019-01-24T03:07:53.201Z,6.37
2019-01-24T03:10:21.966Z,5.90
2019-01-24T03:12:50.794Z,7.30
2019-01-24T03:15:23.396Z,8.40
2019-01-24T03:17:52.547Z,6.80
2019-01-24T03:20:21.794Z,6.23
2019-01-24T03:22:52.038Z,7.67
2019-01-24T03:25:20.978Z,7.90
2019-01-24T03:27:50.012Z,7.80
2019-01-24T03:30:21.252Z,6.67
2019-01-24T03:32:50.182Z,6.17
2019-01-24T03:35:26.508Z,6.63
2019-01-24T03:37:55.418Z,7.17
2019-01-24T03:40:24.329Z,6.93
2019-01-24T03:42:53.097Z,4.93
2019-01-24T03:45:22.098Z,6.57
2019-01-24T03:47:51.232Z,7.20
2019-01-24T03:50:21.529Z,5.13
2019-01-24T03:52:51.200Z,6.47
2019-01-24T03:55:21.670Z,9.40
2019-01-24T03:57:50.781Z,5.37
2019-01-24T04:00:21.544Z,5.57
2019-01-24T04:02:51.502Z,7.67
2019-01-24T04:05:20.935Z,6.77
2019-01-24T04:07:50.016Z,4.97
2019-01-24T04:10:22.626Z,7.23
2019-01-24T04:12:52.991Z,6.10
2019-01-24T04:15:23.794Z,7.77
2019-01-24T04:17:53.006Z,6.57
2019-01-24T04:20:21.926Z,10.20
2019-01-24T04:22:51.022Z,6.97
2019-01-24T04:25:21.531Z,5.77
2019-01-24T04:27:51.828Z,6.60
2019-01-24T04:30:22.073Z,5.33
2019-01-24T04:32:51.170Z,7.03
2019-01-24T04:35:20.395Z,8.17
2019-01-24T04:37:49.551Z,8.27
2019-01-24T04:40:21.207Z,11.17
2019-01-24T04:42:53.672Z,10.47
2019-01-24T04:45:22.630Z,12.73
2019-01-24T04:47:51.634Z,9.80
2019-01-24T04:50:21.099Z,10.43
2019-01-24T04:52:50.086Z,8.00
2019-01-24T04:55:19.971Z,7.97
2019-01-24T04:57:49.502Z,12.10
2019-01-24T05:00:20.786Z,8.67
2019-01-24T05:02:51.244Z,11.77
2019-01-24T05:05:27.230Z,8.27
2019-01-24T05:07:50.876Z,10.67
2019-01-24T05:10:19.793Z,6.23
2019-01-24T05:12:48.820Z,11.17
2019-01-24T05:15:17.947Z,14.23
2019-01-24T05:17:46.763Z,9.37
2019-01-24T05:20:15.807Z,12.20
2019-01-24T05:22:44.703Z,11.80
2019-01-24T05:25:15.614Z,13.20
2019-01-24T05:27:44.654Z,11.57
2019-01-24T05:30:34.286Z,15.40
2019-01-24T05:33:03.102Z,21.17
2019-01-24T05:35:34.952Z,10.60
2019-01-24T05:38:02.614Z,13.13
2019-01-24T05:40:31.491Z,18.57
2019-01-24T05:43:00.446Z,16.43
2019-01-24T05:45:29.375Z,22.47
2019-01-24T05:47:58.185Z,24.00
2019-01-24T05:50:27.049Z,24.23
2019-01-24T05:52:56.138Z,23.20
2019-01-24T05:55:25.133Z,19.67
2019-01-24T05:57:55.505Z,18.10
2019-01-24T06:00:26.010Z,19.13
2019-01-24T06:02:55.030Z,29.27
2019-01-24T06:05:24.025Z,24.33
2019-01-24T06:07:53.037Z,15.90
2019-01-24T06:10:22.107Z,24.87
2019-01-24T06:12:51.128Z,31.70
2019-01-24T06:15:20.288Z,21.03
2019-01-24T06:17:52.158Z,22.57
2019-01-24T06:20:22.364Z,21.30
2019-01-24T06:22:51.440Z,17.73
2019-01-24T06:25:20.351Z,29.27
2019-01-24T06:27:49.555Z,20.13
2019-01-24T06:30:22.910Z,23.57
2019-01-24T06:32:54.388Z,21.10
2019-01-24T06:35:23.190Z,25.83
2019-01-24T06:37:52.193Z,28.87
2019-01-24T06:40:23.607Z,21.47
2019-01-24T06:42:52.565Z,27.27
2019-01-24T06:45:23.189Z,31.37
2019-01-24T06:47:52.288Z,21.10
2019-01-24T06:50:22.821Z,33.37
2019-01-24T06:52:51.928Z,29.30
2019-01-24T06:55:26.636Z,23.40
2019-01-24T06:57:55.607Z,20.50
2019-01-24T07:00:24.423Z,20.40
2019-01-24T07:02:53.122Z,22.73
2019-01-24T07:05:22.024Z,22.70
2019-01-24T07:07:53.747Z,19.37
2019-01-24T07:10:24.281Z,26.23
2019-01-24T07:12:53.051Z,16.17
2019-01-24T07:15:24.932Z,19.57
2019-01-24T07:17:53.882Z,21.33
2019-01-24T07:20:22.875Z,19.00
2019-01-24T07:22:51.598Z,21.73
2019-01-24T07:25:22.274Z,40.07
2019-01-24T07:27:51.324Z,39.53
2019-01-24T07:30:23.312Z,51.07
2019-01-24T07:32:52.704Z,77.33
2019-01-24T07:35:21.950Z,70.40
2019-01-24T07:37:50.978Z,64.13
2019-01-24T07:40:21.046Z,79.17
2019-01-24T07:42:50.683Z,52.23
2019-01-24T07:45:22.272Z,52.73
2019-01-24T07:47:51.507Z,56.37
2019-01-24T07:50:20.727Z,52.13
2019-01-24T07:52:49.678Z,58.80
2019-01-24T07:55:18.841Z,59.67
2019-01-24T07:57:48.023Z,43.70
2019-01-24T08:00:25.171Z,44.47
2019-01-24T08:02:54.182Z,41.03
2019-01-24T08:05:23.929Z,29.33
2019-01-24T08:07:52.770Z,21.60
2019-01-24T08:10:22.934Z,26.13
2019-01-24T08:12:51.788Z,26.83
2019-01-24T08:15:21.917Z,26.50
2019-01-24T08:17:51.131Z,25.40
2019-01-24T08:20:45.056Z,24.47
2019-01-24T08:23:13.823Z,19.00
2019-01-24T08:25:44.349Z,24.60
2019-01-24T08:28:13.096Z,18.37
2019-01-24T08:30:41.919Z,27.40
2019-01-24T08:33:10.854Z,22.13
2019-01-24T08:35:43.001Z,24.50
2019-01-24T08:38:11.990Z,21.83
2019-01-24T08:40:40.911Z,24.13
2019-01-24T08:43:09.965Z,21.93
2019-01-24T08:45:39.060Z,19.57
2019-01-24T08:48:08.058Z,29.37
2019-01-24T08:50:36.782Z,23.30
2019-01-24T08:53:05.769Z,31.37
2019-01-24T08:55:38.073Z,21.93
2019-01-24T08:58:06.886Z,18.70
2019-01-24T09:00:36.111Z,17.83
2019-01-24T09:03:05.595Z,20.83
2019-01-24T09:05:37.239Z,32.83
2019-01-24T09:08:06.448Z,17.93
2019-01-24T09:10:37.404Z,20.93
2019-01-24T09:13:06.890Z,19.33
2019-01-24T09:15:36.079Z,13.07
2019-01-24T09:18:06.160Z,16.03
2019-01-24T09:20:35.097Z,19.73
2019-01-24T09:23:04.619Z,17.50
2019-01-24T09:25:33.472Z,20.20
2019-01-24T09:28:02.417Z,25.63
2019-01-24T09:30:31.613Z,23.50
2019-01-24T09:33:00.521Z,29.23
2019-01-24T09:35:29.393Z,22.77
2019-01-24T09:37:58.425Z,25.60
2019-01-24T09:40:27.398Z,15.53
2019-01-24T09:42:56.207Z,24.10
2019-01-24T09:45:29.046Z,20.10
2019-01-24T09:47:58.933Z,19.57
2019-01-24T09:50:29.420Z,23.13
2019-01-24T09:52:58.518Z,28.00
2019-01-24T09:55:27.898Z,21.97
2019-01-24T09:57:56.869Z,23.33
2019-01-24T10:00:30.748Z,32.77
2019-01-24T10:02:59.763Z,27.97
2019-01-24T10:05:28.616Z,17.73
2019-01-24T10:07:57.718Z,22.63
2019-01-24T10:10:28.072Z,20.37
2019-01-24T10:13:00.865Z,27.73
2019-01-24T10:15:29.909Z,19.20
2019-01-24T10:17:58.892Z,23.37
2019-01-24T10:20:28.422Z,26.63
2019-01-24T10:22:58.972Z,29.37
2019-01-24T10:25:30.430Z,26.03
2019-01-24T10:27:59.294Z,25.07
2019-01-24T10:30:28.380Z,18.73
2019-01-24T10:32:57.173Z,21.43
2019-01-24T10:35:25.978Z,22.90
2019-01-24T10:37:55.695Z,17.07
2019-01-24T10:40:27.298Z,21.03
2019-01-24T10:42:56.610Z,28.33
2019-01-24T10:45:25.398Z,19.60
2019-01-24T10:47:54.538Z,26.33
2019-01-24T10:50:25.944Z,21.77
2019-01-24T10:52:55.253Z,17.70
2019-01-24T10:55:25.998Z,21.50
2019-01-24T10:57:57.343Z,24.37
2019-01-24T11:00:28.615Z,22.33
2019-01-24T11:02:57.621Z,21.50
2019-01-24T11:05:26.467Z,19.43
2019-01-24T11:07:55.397Z,18.17
2019-01-24T11:10:24.262Z,24.07
2019-01-24T11:12:53.174Z,24.87
2019-01-24T11:15:24.119Z,22.33
2019-01-24T11:17:52.873Z,22.57
2019-01-24T11:20:22.450Z,25.40
2019-01-24T11:22:54.307Z,20.93
2019-01-24T11:25:25.029Z,28.07
2019-01-24T11:27:54.227Z,26.27
2019-01-24T11:30:28.228Z,18.67
2019-01-24T11:32:57.359Z,19.60
2019-01-24T11:35:31.438Z,21.57
2019-01-24T11:38:00.304Z,24.97
2019-01-24T11:40:29.273Z,17.13
2019-01-24T11:42:58.139Z,22.23
2019-01-24T11:48:01.341Z,28.00
2019-01-24T11:50:30.160Z,22.67
2019-01-24T11:52:59.079Z,25.93
2019-01-24T11:55:27.866Z,19.33
2019-01-24T11:57:56.639Z,16.93
2019-01-24T12:00:32.193Z,19.33
2019-01-24T12:03:02.005Z,17.03
2019-01-24T12:05:31.188Z,23.00
2019-01-24T12:07:59.985Z,19.40
2019-01-24T12:10:31.721Z,20.80
2019-01-24T12:13:00.596Z,17.80
2019-01-24T12:15:31.043Z,23.30
2019-01-24T12:18:00.195Z,16.53
2019-01-24T12:20:30.408Z,17.70
2019-01-24T12:23:02.787Z,21.23
2019-01-24T12:25:31.683Z,21.20
2019-01-24T12:28:00.592Z,18.63
2019-01-24T12:30:34.688Z,18.07
2019-01-24T12:33:04.877Z,20.40
2019-01-24T12:35:36.637Z,18.40
2019-01-24T12:38:05.566Z,20.33
2019-01-24T12:40:34.735Z,17.43
2019-01-24T12:43:03.756Z,20.43
2019-01-24T12:45:34.820Z,16.90
2019-01-24T12:48:03.847Z,18.80
2019-01-24T12:50:32.912Z,16.80
2019-01-24T12:53:02.146Z,19.13
2019-01-24T12:55:31.262Z,17.93
2019-01-24T12:58:00.190Z,17.00
2019-01-24T13:00:31.406Z,15.80
2019-01-24T13:03:00.402Z,18.03
2019-01-24T13:05:29.502Z,17.53
2019-01-24T13:07:58.695Z,20.60
2019-01-24T13:10:28.515Z,17.63
2019-01-24T13:12:57.432Z,14.07
2019-01-24T13:15:29.176Z,19.30
2019-01-24T13:17:58.034Z,18.43
2019-01-24T13:20:27.399Z,20.07
2019-01-24T13:22:56.390Z,20.93
2019-01-24T13:25:30.943Z,24.83
2019-01-24T13:27:59.779Z,17.67
2019-01-24T13:30:33.342Z,18.17
2019-01-24T13:33:02.487Z,21.07
2019-01-24T13:35:31.469Z,18.83
2019-01-24T13:38:00.625Z,22.33
2019-01-24T13:40:30.710Z,18.47
2019-01-24T13:43:00.807Z,17.07
2019-01-24T13:45:35.083Z,17.37
2019-01-24T13:48:03.972Z,22.33
2019-01-24T13:50:32.923Z,19.03
2019-01-24T13:53:01.936Z,18.80
2019-01-24T13:55:31.056Z,15.73
2019-01-24T13:58:00.263Z,16.57
2019-01-24T14:00:31.624Z,17.13
2019-01-24T14:03:12.265Z,17.33
2019-01-24T14:05:41.651Z,21.00
2019-01-24T14:08:10.856Z,18.40
2019-01-24T14:10:39.852Z,18.80
2019-01-24T14:13:08.789Z,19.77
2019-01-24T14:15:37.710Z,19.87
2019-01-24T14:18:06.840Z,17.13
2019-01-24T14:20:35.792Z,17.23
2019-01-24T14:23:04.660Z,15.57
2019-01-24T14:25:33.687Z,14.90
2019-01-24T14:28:02.435Z,18.63
2019-01-24T14:30:32.731Z,25.13
2019-01-24T14:33:01.570Z,20.40
2019-01-24T14:35:30.489Z,17.60
2019-01-24T14:38:01.057Z,17.40
2019-01-24T14:40:29.874Z,15.30
2019-01-24T14:42:59.965Z,21.77
2019-01-24T14:45:28.947Z,17.80
2019-01-24T14:47:58.397Z,17.13
2019-01-24T14:50:31.363Z,17.20
2019-01-24T14:53:01.752Z,17.83
2019-01-24T14:55:30.577Z,16.53
2019-01-24T14:57:59.589Z,20.23
2019-01-24T15:00:36.879Z,14.57
2019-01-24T15:03:06.197Z,13.63
2019-01-24T15:05:35.289Z,19.77
2019-01-24T15:08:05.131Z,14.90
2019-01-24T15:10:33.935Z,18.80
2019-01-24T15:13:02.714Z,18.20
2019-01-24T15:15:31.791Z,14.07
2019-01-24T15:18:00.615Z,20.87
2019-01-24T15:20:29.789Z,16.77
2019-01-24T15:22:58.841Z,22.37
2019-01-24T15:25:28.133Z,16.40
2019-01-24T15:27:58.461Z,17.07
2019-01-24T15:30:30.902Z,19.97
2019-01-24T15:32:59.851Z,14.63
2019-01-24T15:35:30.327Z,17.20
2019-01-24T15:38:01.143Z,17.73
2019-01-24T15:40:32.477Z,19.37
2019-01-24T15:43:01.634Z,14.57
2019-01-24T15:45:30.596Z,14.37
2019-01-24T15:48:00.353Z,21.90
2019-01-24T15:50:29.413Z,15.30
2019-01-24T15:52:58.323Z,21.67
2019-01-24T15:55:29.569Z,15.57
2019-01-24T15:57:58.318Z,22.30
2019-01-24T16:00:30.461Z,17.37
2019-01-24T16:02:59.635Z,14.73
2019-01-24T16:05:29.206Z,23.33
2019-01-24T16:08:01.940Z,15.90
2019-01-24T16:10:30.022Z,16.43
2019-01-24T16:12:58.878Z,14.93
2019-01-24T16:15:30.377Z,17.60
2019-01-24T16:17:59.071Z,16.60
2019-01-24T16:20:29.408Z,19.77
2019-01-24T16:22:58.512Z,16.43
2019-01-24T16:25:30.260Z,14.77
2019-01-24T16:27:59.273Z,15.87
2019-01-24T16:30:30.516Z,18.87
2019-01-24T16:33:00.299Z,15.03
2019-01-24T16:35:29.154Z,14.93
2019-01-24T16:37:58.137Z,24.10
2019-01-24T16:40:28.993Z,19.30
2019-01-24T16:42:57.971Z,17.43
2019-01-24T16:45:28.274Z,20.20
2019-01-24T16:47:57.789Z,20.60
2019-01-24T16:50:28.672Z,21.30
2019-01-24T16:52:57.935Z,22.70
2019-01-24T16:55:26.864Z,21.07
2019-01-24T16:57:56.004Z,17.80
2019-01-24T17:00:42.333Z,22.47
2019-01-24T17:03:11.219Z,16.70
2019-01-24T17:05:40.492Z,18.90
2019-01-24T17:08:16.281Z,17.97
2019-01-24T17:10:40.297Z,19.03
2019-01-24T17:13:09.420Z,17.50
2019-01-24T17:15:38.310Z,24.33
2019-01-24T17:18:07.338Z,21.60
2019-01-24T17:20:37.821Z,20.10
2019-01-24T17:23:07.083Z,22.63
2019-01-24T17:25:35.847Z,16.23
2019-01-24T17:28:05.811Z,21.47
2019-01-24T17:30:35.062Z,16.57
2019-01-24T17:33:04.445Z,21.87
2019-01-24T17:35:33.486Z,18.90
2019-01-24T17:38:05.129Z,21.40
2019-01-24T17:40:35.244Z,24.80
2019-01-24T17:43:05.062Z,28.07
2019-01-24T17:45:34.526Z,20.30
2019-01-24T17:48:03.463Z,23.50
2019-01-24T17:50:32.280Z,22.47
2019-01-24T17:53:04.056Z,17.70
2019-01-24T17:55:35.766Z,19.53
2019-01-24T17:58:06.583Z,22.87
2019-01-24T18:00:36.992Z,18.20
2019-01-24T18:03:06.112Z,23.17
2019-01-24T18:05:35.063Z,17.67
2019-01-24T18:08:04.719Z,23.50
2019-01-24T18:10:33.640Z,18.70
2019-01-24T18:13:03.143Z,22.33
2019-01-24T18:15:33.978Z,18.57
2019-01-24T18:18:02.935Z,19.83
2019-01-24T18:20:36.744Z,18.53
2019-01-24T18:23:08.044Z,23.63
2019-01-24T18:25:38.515Z,23.07
2019-01-24T18:28:09.903Z,21.17
2019-01-24T18:30:39.061Z,17.60
2019-01-24T18:33:08.544Z,23.50
2019-01-24T18:35:37.841Z,17.50
2019-01-24T18:38:07.098Z,21.53
2019-01-24T18:40:36.518Z,21.33
2019-01-24T18:43:08.055Z,19.67
2019-01-24T18:45:46.078Z,22.03
2019-01-24T18:48:14.972Z,20.60
2019-01-24T18:50:43.904Z,19.10
2019-01-24T18:53:12.839Z,17.03
2019-01-24T18:55:41.758Z,24.07
2019-01-24T18:58:10.752Z,16.37
2019-01-24T19:00:41.751Z,22.57
2019-01-24T19:03:10.716Z,19.47
2019-01-24T19:05:39.788Z,22.37
2019-01-24T19:08:08.697Z,21.13
2019-01-24T19:10:37.589Z,19.10
2019-01-24T19:13:07.095Z,19.17
2019-01-24T19:15:36.131Z,20.53
2019-01-24T19:18:06.121Z,21.43
2019-01-24T19:20:35.291Z,16.60
2019-01-24T19:23:23.639Z,15.37
2019-01-24T19:25:52.593Z,18.70
2019-01-24T19:28:22.817Z,17.17
2019-01-24T19:30:51.727Z,17.23
2019-01-24T19:33:20.840Z,17.73
2019-01-24T19:35:50.148Z,21.97
2019-01-24T19:38:19.780Z,19.03
2019-01-24T19:40:48.874Z,21.03
2019-01-24T19:43:17.875Z,17.40
2019-01-24T19:45:46.818Z,20.40
2019-01-24T19:48:15.820Z,16.73
2019-01-24T19:50:44.760Z,17.00
2019-01-24T19:53:13.597Z,19.17
2019-01-24T19:55:44.543Z,18.23
2019-01-24T19:58:13.134Z,23.03
2019-01-24T20:00:41.934Z,20.13
2019-01-24T20:03:10.879Z,17.87
2019-01-24T20:05:39.832Z,16.20
2019-01-24T20:08:08.770Z,17.63
2019-01-24T20:10:37.833Z,22.53
2019-01-24T20:13:06.673Z,19.00
2019-01-24T20:15:35.710Z,16.63
2019-01-24T20:18:05.317Z,17.70
2019-01-24T20:20:34.279Z,23.37
2019-01-24T20:23:03.193Z,18.07
2019-01-24T20:25:33.471Z,25.77
2019-01-24T20:28:02.319Z,23.70
2019-01-24T20:30:32.788Z,20.67
2019-01-24T20:33:02.604Z,17.73
2019-01-24T20:35:37.299Z,15.50
2019-01-24T20:38:07.341Z,20.97
2019-01-24T20:40:36.194Z,22.43
2019-01-24T20:43:05.565Z,21.37
2019-01-24T20:45:34.439Z,19.43
2019-01-24T20:48:03.623Z,18.17
2019-01-24T20:50:32.296Z,20.50
2019-01-24T20:53:01.189Z,20.87
2019-01-24T20:55:30.100Z,16.63
2019-01-24T20:57:58.908Z,16.30
2019-01-24T21:00:29.665Z,18.60
2019-01-24T21:02:58.756Z,19.60
2019-01-24T21:05:27.510Z,18.60
2019-01-24T21:07:56.364Z,18.80
2019-01-24T21:10:31.483Z,20.13
2019-01-24T21:13:00.237Z,17.17
2019-01-24T21:15:29.153Z,19.10
2019-01-24T21:17:58.118Z,22.17
2019-01-24T21:20:31.950Z,17.77
2019-01-24T21:23:00.843Z,18.77
2019-01-24T21:25:29.982Z,23.67
2019-01-24T21:27:58.872Z,21.87
2019-01-24T21:30:48.989Z,13.60
2019-01-24T21:33:17.825Z,18.53
2019-01-24T21:35:46.844Z,19.57
2019-01-24T21:38:16.034Z,18.90
2019-01-24T21:40:44.871Z,21.47
2019-01-24T21:43:13.669Z,18.43
2019-01-24T21:45:43.130Z,17.93
2019-01-24T21:48:11.980Z,17.70
2019-01-24T21:50:40.927Z,16.07
2019-01-24T21:53:10.069Z,19.30
2019-01-24T21:55:39.208Z,16.77
2019-01-24T21:58:08.355Z,22.50
2019-01-24T22:00:37.439Z,19.97
2019-01-24T22:03:06.880Z,17.93
2019-01-24T22:05:35.768Z,16.13
2019-01-24T22:08:04.816Z,21.97
2019-01-24T22:10:33.651Z,16.43
2019-01-24T22:13:02.503Z,21.93
2019-01-24T22:15:33.288Z,21.67
2019-01-24T22:18:02.381Z,22.97
2019-01-24T22:20:31.139Z,19.47
2019-01-24T22:23:00.467Z,20.07
2019-01-24T22:25:53.069Z,23.10
2019-01-24T22:28:22.761Z,17.40
2019-01-24T22:30:55.444Z,17.77
2019-01-24T22:33:24.445Z,19.47
2019-01-24T22:35:53.486Z,19.90
2019-01-24T22:38:23.071Z,22.53
2019-01-24T22:40:52.035Z,19.40
2019-01-24T22:43:21.026Z,19.10
2019-01-24T22:45:50.047Z,18.07
2019-01-24T22:48:19.465Z,19.03
2019-01-24T22:50:48.434Z,14.80
2019-01-24T22:53:17.654Z,19.57
2019-01-24T22:55:46.519Z,18.23
2019-01-24T22:58:16.894Z,15.00
2019-01-24T23:01:01.218Z,18.07
2019-01-24T23:03:36.317Z,15.70
2019-01-24T23:06:06.057Z,14.87
2019-01-24T23:08:34.871Z,23.60
2019-01-24T23:11:03.632Z,16.43
2019-01-24T23:13:32.599Z,18.13
2019-01-24T23:16:01.562Z,14.37
2019-01-24T23:18:30.679Z,15.60
2019-01-24T23:20:59.533Z,20.20
2019-01-24T23:23:31.495Z,16.03
2019-01-24T23:26:00.254Z,15.43
2019-01-24T23:28:29.333Z,13.90
2019-01-24T23:30:58.387Z,20.97
2019-01-24T23:33:27.355Z,15.27
2019-01-24T23:35:56.265Z,14.03
2019-01-24T23:38:25.435Z,15.50
2019-01-24T23:40:54.461Z,15.93
2019-01-24T23:43:23.490Z,14.40
2019-01-24T23:45:52.329Z,16.53
2019-01-24T23:48:22.610Z,16.50
2019-01-24T23:50:53.083Z,20.60
2019-01-24T23:53:22.063Z,15.63
2019-01-24T23:55:50.933Z,17.37
2019-01-24T23:58:21.381Z,14.10
